Terminal Aerodrome Forecast
Issued by NWS Shreveport, LA

Home | Current Version | Previous Version | Text Only | Print | Product List | Glossary On
Versions: 1 2 3 4 5 6 7 8 9 10 11 12 13 14 15 16 17 18 19 20
000
FTUS44 KSHV 251740
TAFSHV
TAF
KSHV 251740Z 2518/2618 19015G21KT P6SM SKC
     FM260000 17010KT P6SM SKC
     FM261100 19010KT P6SM SCT015
     FM261500 20013G22KT P6SM SCT020 SCT250=

USA.gov is the U.S. government's official web portal to all federal, state and local government web resources and services.